createdAt,value
2018-09-28T00:00:59.698Z,7.47
2018-09-28T00:03:40.422Z,7.27
2018-09-28T00:06:21.088Z,5.10
2018-09-28T00:09:01.599Z,4.63
2018-09-28T00:11:42.337Z,7.73
2018-09-28T00:14:23.484Z,6.30
2018-09-28T00:17:04.071Z,6.57
2018-09-28T00:19:45.399Z,6.17
2018-09-28T00:22:26.275Z,6.93
2018-09-28T00:25:07.383Z,7.70
2018-09-28T00:27:48.216Z,6.62
2018-09-28T00:30:29.087Z,5.97
2018-09-28T00:33:09.506Z,6.27
2018-09-28T00:35:51.640Z,9.70
2018-09-28T00:38:32.542Z,6.33
2018-09-28T00:41:13.736Z,6.65
2018-09-28T00:43:54.544Z,6.70
2018-09-28T00:46:36.078Z,7.78
2018-09-28T00:49:17.701Z,7.10
2018-09-28T00:51:59.071Z,6.45
2018-09-28T00:54:39.904Z,6.10
2018-09-28T00:57:21.079Z,9.70
2018-09-28T01:00:02.307Z,6.22
2018-09-28T01:02:43.170Z,7.53
2018-09-28T01:05:24.411Z,6.33
2018-09-28T01:08:06.100Z,8.43
2018-09-28T01:10:47.522Z,7.62
2018-09-28T01:13:28.738Z,6.33
2018-09-28T01:16:09.531Z,7.42
2018-09-28T01:18:50.826Z,7.00
2018-09-28T01:21:32.000Z,4.83
2018-09-28T01:24:13.284Z,7.25
2018-09-28T01:26:54.091Z,7.95
2018-09-28T01:29:34.872Z,6.10
2018-09-28T01:32:15.682Z,7.87
2018-09-28T01:34:56.607Z,10.23
2018-09-28T01:37:38.070Z,6.85
2018-09-28T01:40:18.862Z,7.08
2018-09-28T01:42:59.600Z,7.92
2018-09-28T01:45:40.606Z,6.25
2018-09-28T01:48:21.411Z,7.45
2018-09-28T01:51:02.996Z,7.28
2018-09-28T01:53:44.524Z,7.50
2018-09-28T01:56:26.382Z,5.65
2018-09-28T01:59:08.212Z,5.65
2018-09-28T02:01:49.306Z,6.55
2018-09-28T02:04:30.734Z,5.87
2018-09-28T02:07:12.132Z,6.37
2018-09-28T02:09:53.140Z,5.33
2018-09-28T02:12:33.992Z,6.55
2018-09-28T02:15:14.960Z,6.33
2018-09-28T02:17:55.663Z,8.93
2018-09-28T02:20:36.825Z,7.35
2018-09-28T02:23:17.529Z,8.83
2018-09-28T02:25:58.831Z,7.85
2018-09-28T02:28:39.648Z,7.12
2018-09-28T02:31:20.431Z,6.75
2018-09-28T02:34:02.432Z,7.17
2018-09-28T02:36:43.608Z,6.30
2018-09-28T02:39:24.933Z,5.35
2018-09-28T02:42:07.184Z,7.00
2018-09-28T02:44:48.326Z,8.45
2018-09-28T02:47:29.391Z,8.03
2018-09-28T02:50:10.444Z,9.30
2018-09-28T02:52:51.323Z,6.47
2018-09-28T02:55:32.015Z,6.95
2018-09-28T02:58:12.760Z,7.08
2018-09-28T03:00:54.107Z,5.60
2018-09-28T03:03:36.242Z,6.25
2018-09-28T03:06:17.130Z,6.33
2018-09-28T03:08:59.491Z,5.45
2018-09-28T03:11:41.099Z,8.03
2018-09-28T03:14:21.881Z,6.87
2018-09-28T03:17:02.709Z,6.28
2018-09-28T03:19:43.864Z,6.15
2018-09-28T03:22:24.560Z,5.95
2018-09-28T03:25:05.832Z,9.00
2018-09-28T03:27:46.546Z,7.58
2018-09-28T03:30:27.348Z,8.83
2018-09-28T03:33:08.427Z,6.20
2018-09-28T03:35:49.382Z,8.08
2018-09-28T03:38:30.023Z,5.53
2018-09-28T03:41:10.834Z,6.90
2018-09-28T03:43:51.587Z,8.43
2018-09-28T03:46:32.675Z,8.00
2018-09-28T03:49:13.343Z,8.00
2018-09-28T03:51:54.708Z,7.28
2018-09-28T03:54:35.422Z,8.55
2018-09-28T03:57:16.228Z,6.17
2018-09-28T03:59:56.927Z,7.50
2018-09-28T04:02:38.195Z,7.97
2018-09-28T04:05:19.314Z,10.23
2018-09-28T04:08:00.361Z,7.12
2018-09-28T04:10:41.690Z,8.33
2018-09-28T04:13:22.763Z,11.28
2018-09-28T04:16:04.403Z,8.65
2018-09-28T04:18:45.122Z,7.17
2018-09-28T04:21:27.150Z,8.50
2018-09-28T04:24:08.612Z,8.93
2018-09-28T04:26:49.667Z,7.65
2018-09-28T04:29:32.482Z,8.93
2018-09-28T04:32:13.232Z,8.78
2018-09-28T04:34:54.051Z,8.70
2018-09-28T04:37:35.185Z,8.88
2018-09-28T04:40:15.963Z,11.35
2018-09-28T04:42:57.378Z,7.87
2018-09-28T04:45:38.296Z,13.62
2018-09-28T04:48:19.852Z,10.18
2018-09-28T04:51:00.576Z,10.10
2018-09-28T04:53:41.495Z,12.68
2018-09-28T04:56:22.198Z,13.93
2018-09-28T04:59:03.445Z,16.97
2018-09-28T05:01:44.452Z,17.32
2018-09-28T05:04:25.938Z,15.25
2018-09-28T05:07:07.811Z,20.70
2018-09-28T05:09:48.582Z,16.87
2018-09-28T05:12:29.817Z,18.30
2018-09-28T05:15:11.408Z,19.50
2018-09-28T05:17:52.238Z,16.32
2018-09-28T05:20:33.456Z,16.90
2018-09-28T05:23:14.152Z,16.73
2018-09-28T05:25:55.429Z,15.48
2018-09-28T05:28:36.400Z,12.60
2018-09-28T05:31:18.051Z,10.88
2018-09-28T05:33:59.099Z,16.93
2018-09-28T05:36:40.190Z,13.28
2018-09-28T05:39:21.263Z,12.05
2018-09-28T05:42:02.591Z,9.90
2018-09-28T05:44:43.953Z,16.20
2018-09-28T05:47:25.129Z,14.05
2018-09-28T05:50:06.176Z,15.23
2018-09-28T05:52:47.998Z,24.00
2018-09-28T05:55:29.124Z,17.07
2018-09-28T05:58:15.316Z,11.10
2018-09-28T06:01:02.264Z,15.40
2018-09-28T06:03:48.584Z,13.60
2018-09-28T06:06:29.476Z,14.15
2018-09-28T06:09:11.709Z,17.48
2018-09-28T06:11:52.653Z,13.28
2018-09-28T06:14:34.016Z,15.20
2018-09-28T06:17:15.256Z,17.07
2018-09-28T06:19:55.921Z,12.80
2018-09-28T06:22:37.100Z,11.78
2018-09-28T06:25:18.536Z,14.68
2018-09-28T06:27:59.586Z,19.60
2018-09-28T06:30:40.848Z,14.07
2018-09-28T06:33:21.959Z,12.55
2018-09-28T06:36:03.617Z,10.63
2018-09-28T06:38:45.147Z,14.85
2018-09-28T06:41:26.289Z,12.70
2018-09-28T06:44:07.284Z,14.47
2018-09-28T06:46:48.579Z,13.90
2018-09-28T06:49:29.553Z,16.03
2018-09-28T06:52:10.530Z,11.87
2018-09-28T06:54:51.323Z,11.67
2018-09-28T06:57:32.341Z,16.30
2018-09-28T07:00:13.948Z,15.13
2018-09-28T07:02:54.732Z,13.33
2018-09-28T07:05:35.248Z,14.10
2018-09-28T07:08:16.444Z,15.00
2018-09-28T07:10:57.380Z,18.13
2018-09-28T07:13:38.306Z,16.53
2018-09-28T07:16:19.013Z,15.80
2018-09-28T07:18:59.828Z,13.30
2018-09-28T07:21:40.630Z,13.57
2018-09-28T07:24:21.149Z,17.20
2018-09-28T07:27:02.469Z,15.53
2018-09-28T07:29:43.487Z,18.27
2018-09-28T07:32:24.148Z,15.40
2018-09-28T07:35:05.047Z,16.40
2018-09-28T07:37:45.962Z,19.37
2018-09-28T07:40:26.676Z,16.13
2018-09-28T07:43:07.555Z,19.70
2018-09-28T07:45:48.736Z,22.03
2018-09-28T07:48:29.863Z,16.33
2018-09-28T07:51:11.187Z,17.67
2018-09-28T07:53:51.889Z,22.43
2018-09-28T07:56:33.178Z,20.53
2018-09-28T07:59:13.763Z,18.00
2018-09-28T08:01:54.542Z,18.37
2018-09-28T08:04:35.151Z,20.77
2018-09-28T08:07:16.043Z,19.07
2018-09-28T08:09:56.424Z,22.83
2018-09-28T08:12:37.302Z,19.90
2018-09-28T08:15:18.070Z,20.97
2018-09-28T08:17:58.988Z,19.63
2018-09-28T08:20:40.068Z,17.13
2018-09-28T08:23:21.436Z,20.60
2018-09-28T08:26:02.837Z,25.70
2018-09-28T08:28:43.284Z,21.63
2018-09-28T08:31:24.331Z,20.67
2018-09-28T08:34:05.474Z,19.97
2018-09-28T08:36:46.652Z,26.37
2018-09-28T08:39:27.422Z,24.47
2018-09-28T08:42:09.028Z,22.33
2018-09-28T08:44:49.648Z,24.03
2018-09-28T08:47:30.312Z,22.07
2018-09-28T08:50:11.572Z,25.17
2018-09-28T08:52:52.208Z,28.10
2018-09-28T08:55:34.085Z,25.17
2018-09-28T08:58:14.627Z,22.10
2018-09-28T09:00:55.522Z,21.67
2018-09-28T09:03:36.359Z,21.93
2018-09-28T09:06:17.168Z,25.93
2018-09-28T09:08:57.733Z,21.67
2018-09-28T09:11:38.730Z,23.60
2018-09-28T09:14:20.069Z,28.93
2018-09-28T09:17:01.430Z,26.07
2018-09-28T09:19:41.938Z,25.07
2018-09-28T09:22:22.880Z,22.07
2018-09-28T09:25:04.471Z,22.60
2018-09-28T09:27:44.928Z,25.03
2018-09-28T09:30:25.699Z,24.20
2018-09-28T09:33:07.238Z,25.33
2018-09-28T09:35:48.457Z,24.40
2018-09-28T09:38:29.472Z,25.53
2018-09-28T09:41:10.234Z,24.50
2018-09-28T09:43:50.915Z,24.33
2018-09-28T09:46:31.572Z,27.80
2018-09-28T09:49:12.305Z,24.27
2018-09-28T09:51:52.756Z,25.13
2018-09-28T09:54:33.963Z,21.77
2018-09-28T09:57:14.511Z,27.43
2018-09-28T09:59:55.079Z,29.27
2018-09-28T10:02:40.959Z,26.03
2018-09-28T10:05:21.522Z,25.73
2018-09-28T10:08:02.345Z,23.80
2018-09-28T10:10:43.328Z,26.33
2018-09-28T10:13:24.193Z,29.53
2018-09-28T10:16:04.961Z,27.87
2018-09-28T10:18:45.844Z,31.53
2018-09-28T10:21:27.377Z,28.20
2018-09-28T10:24:08.197Z,30.70
2018-09-28T10:26:49.107Z,26.90
2018-09-28T10:29:30.546Z,30.47
2018-09-28T10:32:11.283Z,35.03
2018-09-28T10:34:52.731Z,29.03
2018-09-28T10:37:34.038Z,25.90
2018-09-28T10:40:15.419Z,24.63
2018-09-28T10:42:56.166Z,27.27
2018-09-28T10:45:37.223Z,27.90
2018-09-28T10:48:17.879Z,27.90
2018-09-28T10:50:59.327Z,27.50
2018-09-28T10:53:39.976Z,28.43
2018-09-28T10:56:20.766Z,23.30
2018-09-28T10:59:01.419Z,26.50
2018-09-28T11:01:41.870Z,29.17
2018-09-28T11:04:23.220Z,22.32
2018-09-28T11:07:04.540Z,18.03
2018-09-28T11:09:47.071Z,18.23
2018-09-28T11:12:28.550Z,14.98
2018-09-28T11:15:09.545Z,14.83
2018-09-28T11:17:50.330Z,16.27
2018-09-28T11:20:31.566Z,15.83
2018-09-28T11:23:13.784Z,14.13
2018-09-28T11:25:54.260Z,15.87
2018-09-28T11:28:35.047Z,15.83
2018-09-28T11:31:15.798Z,16.37
2018-09-28T11:33:56.488Z,14.53
2018-09-28T11:36:37.395Z,15.63
2018-09-28T11:39:18.205Z,14.80
2018-09-28T11:41:59.299Z,15.93
2018-09-28T11:44:39.861Z,15.93
2018-09-28T11:47:20.243Z,13.60
2018-09-28T11:50:01.085Z,13.27
2018-09-28T11:52:41.710Z,12.30
2018-09-28T11:55:26.436Z,13.75
2018-09-28T11:58:07.415Z,12.43
2018-09-28T12:00:47.854Z,11.67
2018-09-28T12:03:28.398Z,12.13
2018-09-28T12:06:09.901Z,10.47
2018-09-28T12:08:50.970Z,10.30
2018-09-28T12:11:31.912Z,9.30
2018-09-28T12:14:12.635Z,10.10
2018-09-28T12:16:53.067Z,7.90
2018-09-28T12:19:33.535Z,6.73
2018-09-28T12:22:15.732Z,8.43
2018-09-28T12:24:56.628Z,8.23
2018-09-28T12:27:37.454Z,11.63
2018-09-28T12:30:18.491Z,11.10
2018-09-28T12:32:59.184Z,10.40
2018-09-28T12:35:40.789Z,8.87
2018-09-28T12:38:21.577Z,8.27
2018-09-28T12:41:02.183Z,10.80
2018-09-28T12:43:42.652Z,8.83
2018-09-28T12:46:23.378Z,9.63
2018-09-28T12:49:06.204Z,11.17
2018-09-28T12:51:46.943Z,15.37
2018-09-28T12:54:27.779Z,11.93
2018-09-28T12:57:08.880Z,12.40
2018-09-28T12:59:49.811Z,12.10
2018-09-28T13:02:30.679Z,11.30
2018-09-28T13:05:11.632Z,9.57
2018-09-28T13:07:52.737Z,12.13
2018-09-28T13:10:34.393Z,14.10
2018-09-28T13:13:15.965Z,11.20
2018-09-28T13:15:56.860Z,14.53
2018-09-28T13:18:37.866Z,13.00
2018-09-28T13:21:19.246Z,11.57
2018-09-28T13:24:00.502Z,11.87
2018-09-28T13:26:41.906Z,11.93
2018-09-28T13:29:22.464Z,14.67
2018-09-28T13:32:03.436Z,13.60
2018-09-28T13:34:44.248Z,14.77
2018-09-28T13:37:25.979Z,12.97
2018-09-28T13:40:08.017Z,10.83
2018-09-28T13:42:48.491Z,13.57
2018-09-28T13:45:29.221Z,12.17
2018-09-28T13:48:10.481Z,13.37
2018-09-28T13:50:51.199Z,15.10
2018-09-28T13:53:31.863Z,13.53
2018-09-28T13:56:13.257Z,13.03
2018-09-28T13:58:54.324Z,14.50
2018-09-28T14:01:34.989Z,16.53
2018-09-28T14:04:16.400Z,16.27
2018-09-28T14:06:57.445Z,17.23
2018-09-28T14:09:38.013Z,18.07
2018-09-28T14:12:18.922Z,16.10
2018-09-28T14:14:59.918Z,18.07
2018-09-28T14:17:40.685Z,14.17
2018-09-28T14:20:21.687Z,15.43
2018-09-28T14:23:02.491Z,14.87
2018-09-28T14:25:43.268Z,16.87
2018-09-28T14:28:23.868Z,16.50
2018-09-28T14:31:05.494Z,14.73
2018-09-28T14:33:46.096Z,17.63
2018-09-28T14:36:28.021Z,19.60
2018-09-28T14:39:10.323Z,17.17
2018-09-28T14:41:51.492Z,17.47
2018-09-28T14:44:32.226Z,17.80
2018-09-28T14:47:13.110Z,18.13
2018-09-28T14:49:53.892Z,15.27
2018-09-28T14:52:34.533Z,16.40
2018-09-28T14:55:15.787Z,19.77
2018-09-28T14:57:56.555Z,20.47
2018-09-28T15:00:37.881Z,20.60
2018-09-28T15:03:19.406Z,15.73
2018-09-28T15:06:00.216Z,17.93
2018-09-28T15:08:41.258Z,16.47
2018-09-28T15:11:21.839Z,16.33
2018-09-28T15:14:02.574Z,14.27
2018-09-28T15:16:43.750Z,14.70
2018-09-28T15:19:25.148Z,16.00
2018-09-28T15:22:06.125Z,10.30
2018-09-28T15:24:47.376Z,13.33
2018-09-28T15:27:28.448Z,10.53
2018-09-28T15:30:09.374Z,8.37
2018-09-28T15:32:51.314Z,7.87
2018-09-28T15:35:32.436Z,8.27
2018-09-28T15:38:13.340Z,6.10
2018-09-28T15:40:54.236Z,5.30
2018-09-28T15:43:35.077Z,8.10
2018-09-28T15:46:16.147Z,6.87
2018-09-28T15:48:56.533Z,9.03
2018-09-28T15:51:37.300Z,9.20
2018-09-28T15:54:18.635Z,8.90
2018-09-28T15:56:59.541Z,9.13
2018-09-28T15:59:40.540Z,8.77
2018-09-28T16:02:21.079Z,9.27
2018-09-28T16:05:03.284Z,6.67
2018-09-28T16:07:44.459Z,7.00
2018-09-28T16:10:25.096Z,7.27
2018-09-28T16:13:05.691Z,8.03
2018-09-28T16:15:46.402Z,8.03
2018-09-28T16:18:28.011Z,8.03
2018-09-28T16:21:08.800Z,7.30
2018-09-28T16:23:49.856Z,10.70
2018-09-28T16:26:30.641Z,6.10
2018-09-28T16:29:11.836Z,10.77
2018-09-28T16:31:52.516Z,6.87
2018-09-28T16:34:33.211Z,8.27
2018-09-28T16:37:15.179Z,6.80
2018-09-28T16:39:56.003Z,8.83
2018-09-28T16:42:36.964Z,10.53
2018-09-28T16:45:17.572Z,6.30
2018-09-28T16:47:58.460Z,10.23
2018-09-28T16:50:39.444Z,10.90
2018-09-28T16:53:20.357Z,12.03
2018-09-28T16:56:01.487Z,5.70
2018-09-28T16:58:42.278Z,5.57
2018-09-28T17:01:23.048Z,9.97
2018-09-28T17:04:04.061Z,10.10
2018-09-28T17:06:45.680Z,6.00
2018-09-28T17:09:26.510Z,9.50
2018-09-28T17:12:07.559Z,9.20
2018-09-28T17:14:48.281Z,7.80
2018-09-28T17:17:29.057Z,12.87
2018-09-28T17:20:09.815Z,7.80
2018-09-28T17:22:50.738Z,7.80
2018-09-28T17:25:31.951Z,6.93
2018-09-28T17:28:12.896Z,9.98
2018-09-28T17:30:53.559Z,10.57
2018-09-28T17:33:34.486Z,12.30
2018-09-28T17:36:15.345Z,7.50
2018-09-28T17:38:56.434Z,7.07
2018-09-28T17:41:37.532Z,11.80
2018-09-28T17:44:19.371Z,11.18
2018-09-28T17:47:00.088Z,9.60
2018-09-28T17:49:41.455Z,9.07
2018-09-28T17:52:22.219Z,11.78
2018-09-28T17:55:04.346Z,13.35
2018-09-28T17:57:44.833Z,7.47
2018-09-28T18:00:25.679Z,9.10
2018-09-28T18:03:06.910Z,6.43
2018-09-28T18:05:47.759Z,8.73
2018-09-28T18:08:29.778Z,10.30
2018-09-28T18:11:10.901Z,9.03
2018-09-28T18:13:51.734Z,9.70
2018-09-28T18:16:32.869Z,7.27
2018-09-28T18:19:13.594Z,8.90
2018-09-28T18:21:54.039Z,7.73
2018-09-28T18:24:35.102Z,5.70
2018-09-28T18:27:16.311Z,6.77
2018-09-28T18:29:58.144Z,5.53
2018-09-28T18:32:38.764Z,8.23
2018-09-28T18:35:19.494Z,8.10
2018-09-28T18:38:00.208Z,6.07
2018-09-28T18:40:40.991Z,9.03
2018-09-28T18:43:21.508Z,6.37
2018-09-28T18:46:02.520Z,5.70
2018-09-28T18:48:43.131Z,7.87
2018-09-28T18:51:24.618Z,11.43
2018-09-28T18:54:05.489Z,8.27
2018-09-28T18:56:46.668Z,8.73
2018-09-28T18:59:27.677Z,8.93
2018-09-28T19:02:08.620Z,10.57
2018-09-28T19:04:50.124Z,5.20
2018-09-28T19:07:31.012Z,10.18
2018-09-28T19:10:11.909Z,6.97
2018-09-28T19:12:53.702Z,5.53
2018-09-28T19:15:35.224Z,4.87
2018-09-28T19:18:16.028Z,5.23
2018-09-28T19:20:57.340Z,9.73
2018-09-28T19:23:38.473Z,9.23
2018-09-28T19:26:19.340Z,5.23
2018-09-28T19:28:59.800Z,5.20
2018-09-28T19:31:40.569Z,7.80
2018-09-28T19:34:21.658Z,9.25
2018-09-28T19:37:03.144Z,5.45
2018-09-28T19:39:44.052Z,6.17
2018-09-28T19:42:24.960Z,10.35
2018-09-28T19:45:06.546Z,8.98
2018-09-28T19:47:47.787Z,4.05
2018-09-28T19:50:28.744Z,6.00
2018-09-28T19:53:10.013Z,6.90
2018-09-28T19:55:51.216Z,7.40
2018-09-28T19:58:32.340Z,7.10
2018-09-28T20:01:14.160Z,10.98
2018-09-28T20:03:55.032Z,9.03
2018-09-28T20:06:36.223Z,9.48
2018-09-28T20:09:17.209Z,5.87
2018-09-28T20:11:58.082Z,7.85
2018-09-28T20:14:38.847Z,9.35
2018-09-28T20:17:20.104Z,8.30
2018-09-28T20:20:01.270Z,9.15
2018-09-28T20:22:42.870Z,8.50
2018-09-28T20:25:24.848Z,4.92
2018-09-28T20:28:05.824Z,5.80
2018-09-28T20:30:47.399Z,7.35
2018-09-28T20:33:28.770Z,6.30
2018-09-28T20:36:10.466Z,6.58
2018-09-28T20:38:52.058Z,10.58
2018-09-28T20:41:33.574Z,10.80
2018-09-28T20:44:14.872Z,6.58
2018-09-28T20:46:55.621Z,5.90
2018-09-28T20:49:36.426Z,8.55
2018-09-28T20:52:17.841Z,5.33
2018-09-28T20:54:58.491Z,6.62
2018-09-28T20:57:39.251Z,4.65
2018-09-28T21:00:20.777Z,6.20
2018-09-28T21:03:01.485Z,4.95
2018-09-28T21:05:42.782Z,9.05
2018-09-28T21:08:23.494Z,7.87
2018-09-28T21:11:04.719Z,5.85
2018-09-28T21:13:45.660Z,15.53
2018-09-28T21:16:26.539Z,7.47
2018-09-28T21:19:07.661Z,5.65
2018-09-28T21:21:48.795Z,4.92
2018-09-28T21:24:29.538Z,7.25
2018-09-28T21:27:10.759Z,6.30
2018-09-28T21:29:51.492Z,6.30
2018-09-28T21:32:32.878Z,2.90
2018-09-28T21:35:14.563Z,7.05
2018-09-28T21:37:56.012Z,6.25
2018-09-28T21:40:37.148Z,6.45
2018-09-28T21:43:18.064Z,5.20
2018-09-28T21:45:59.351Z,4.67
2018-09-28T21:48:40.151Z,9.88
2018-09-28T21:51:21.788Z,8.58
2018-09-28T21:54:03.091Z,7.25
2018-09-28T21:56:44.063Z,7.62
2018-09-28T21:59:24.965Z,5.30
2018-09-28T22:02:05.689Z,5.22
2018-09-28T22:04:46.678Z,3.65
2018-09-28T22:07:28.059Z,5.30
2018-09-28T22:10:08.962Z,5.30
2018-09-28T22:12:50.853Z,9.93
2018-09-28T22:15:31.660Z,5.20
2018-09-28T22:18:12.697Z,11.20
2018-09-28T22:20:53.382Z,6.00
2018-09-28T22:23:34.207Z,8.08
2018-09-28T22:26:15.625Z,7.22
2018-09-28T22:28:56.607Z,7.25
2018-09-28T22:31:38.340Z,12.33
2018-09-28T22:34:19.910Z,6.75
2018-09-28T22:37:00.749Z,6.08
2018-09-28T22:39:41.512Z,8.40
2018-09-28T22:42:22.457Z,7.70
2018-09-28T22:45:03.764Z,5.15
2018-09-28T22:47:44.815Z,4.40
2018-09-28T22:50:25.608Z,7.83
2018-09-28T22:53:06.492Z,6.15
2018-09-28T22:55:47.825Z,8.00
2018-09-28T22:58:28.895Z,6.20
2018-09-28T23:01:09.515Z,8.63
2018-09-28T23:03:50.621Z,7.03
2018-09-28T23:06:31.494Z,7.85
2018-09-28T23:09:12.439Z,6.33
2018-09-28T23:11:53.641Z,10.93
2018-09-28T23:14:34.596Z,7.50
2018-09-28T23:17:15.556Z,8.18
2018-09-28T23:19:56.644Z,7.08
2018-09-28T23:22:37.492Z,7.40
2018-09-28T23:25:18.746Z,5.58
2018-09-28T23:27:59.877Z,7.10
2018-09-28T23:30:41.196Z,12.33
2018-09-28T23:33:21.914Z,9.28
2018-09-28T23:36:03.598Z,9.40
2018-09-28T23:38:44.741Z,9.30
2018-09-28T23:41:25.470Z,10.28
2018-09-28T23:44:06.627Z,6.12
2018-09-28T23:46:47.668Z,6.42
2018-09-28T23:49:28.843Z,9.35
2018-09-28T23:52:09.709Z,6.15
2018-09-28T23:54:50.539Z,5.30
2018-09-28T23:57:31.954Z,11.88
